Pagina principale
METAR-TAF:

Aeroporti :

Genova, Italia

Aeroporto di Genova-Sestri

latitudine: 44-25N, longitudine: 008-51E, altezza: 2 m

Osservazione

Il bollettino è stato emesso 39 minuti fa, alle 20:20 UTC
Vento 15 kt da est/sud-est
Temperature 18°C
Umidità 88%
Pressione 1008 hPa
Visibilità 10 km o più
Nuvoloso ad un'altezza di 1200 ft
Nuvoloso ad un'altezza di 2200 ft

METAR: LIMJ 292020Z 12015KT 9999 BKN012 BKN022 18/16 Q1008

Ora: 22:59 (20:59 UTC)

Previsione

Il bollettino è stato emesso 3 ore e 59 minuti fa, alle 17:00 UTC
Previsione valida dal 29 alle 18 UTC al 30 alle 18 UTC
Vento 7 kt da sud
Visibilità 10 km o più
Nubi sparse ad un'altezza di 1500 ft
Nuvoloso ad un'altezza di 2500 ft

TAF: LIMJ 291700Z 2918/3018 17007KT 9999 SCT015 BKN025

METAR-TAF

Osservazioni e previsioni meteorologiche di più di 4000 aeroporti (messaggi METAR e TAF).

Le stazioni disponibili sono rappresentate dai dischi gialli e rossi sulla carta.

Puntare il mouse per vedere il nome della stazione.

Clicca sopra per visualizzare le osservazioni e previsioni meteorologiche.

Per cambiare la mappa : fare clic sui pulsanti verdi con una croce nera per ingrandire, il pulsante verde con un trattino per diminuire, o sulla freccia verde per le mappe adiacenti.


METAR-TAF: